createdAt,value
2023-08-21T00:01:58.588Z,29.39
2023-08-21T00:04:29.620Z,29.40
2023-08-21T00:07:01.083Z,29.40
2023-08-21T00:09:31.785Z,29.41
2023-08-21T00:12:02.553Z,29.42
2023-08-21T00:14:33.428Z,29.40
2023-08-21T00:17:05.472Z,29.38
2023-08-21T00:19:36.427Z,29.36
2023-08-21T00:22:07.368Z,29.33
2023-08-21T00:24:38.188Z,29.30
2023-08-21T00:27:09.247Z,29.29
2023-08-21T00:29:40.279Z,29.28
2023-08-21T00:32:13.205Z,29.27
2023-08-21T00:34:44.058Z,29.27
2023-08-21T00:37:17.498Z,29.26
2023-08-21T00:39:48.301Z,29.27
2023-08-21T00:42:19.430Z,29.28
2023-08-21T00:44:50.222Z,29.31
2023-08-21T00:47:21.734Z,29.27
2023-08-21T00:49:52.766Z,29.29
2023-08-21T00:52:23.813Z,29.30
2023-08-21T00:54:55.149Z,29.31
2023-08-21T00:57:27.552Z,29.31
2023-08-21T00:59:58.439Z,29.29
2023-08-21T01:02:29.332Z,29.24
2023-08-21T01:05:00.501Z,29.26
2023-08-21T01:07:32.018Z,29.24
2023-08-21T01:10:10.572Z,29.22
2023-08-21T01:12:50.974Z,29.20
2023-08-21T01:15:22.126Z,29.18
2023-08-21T01:17:54.231Z,29.16
2023-08-21T01:20:25.553Z,29.17
2023-08-21T01:22:56.297Z,29.15
2023-08-21T01:25:27.215Z,29.14
2023-08-21T01:27:57.952Z,29.12
2023-08-21T01:30:31.069Z,29.10
2023-08-21T01:33:08.080Z,29.09
2023-08-21T01:35:39.820Z,29.08
2023-08-21T01:38:10.962Z,29.06
2023-08-21T01:40:42.303Z,29.06
2023-08-21T01:43:12.980Z,29.04
2023-08-21T01:45:43.796Z,29.03
2023-08-21T01:48:14.761Z,29.02
2023-08-21T01:50:45.618Z,29.02
2023-08-21T01:53:16.289Z,29.00
2023-08-21T01:55:47.149Z,28.98
2023-08-21T01:58:17.890Z,28.97
2023-08-21T02:00:51.365Z,28.95
2023-08-21T02:03:22.333Z,28.94
2023-08-21T02:05:53.560Z,28.92
2023-08-21T02:08:24.203Z,28.88
2023-08-21T02:10:55.362Z,28.88
2023-08-21T02:13:26.203Z,28.87
2023-08-21T02:15:57.193Z,28.87
2023-08-21T02:18:28.210Z,28.85
2023-08-21T02:20:58.955Z,28.82
2023-08-21T02:23:30.087Z,28.82
2023-08-21T02:26:00.986Z,28.81
2023-08-21T02:28:32.156Z,28.76
2023-08-21T02:31:03.064Z,28.79
2023-08-21T02:33:34.775Z,28.78
2023-08-21T02:36:05.946Z,28.75
2023-08-21T02:38:36.818Z,28.74
2023-08-21T02:41:07.540Z,28.75
2023-08-21T02:43:39.054Z,28.75
2023-08-21T02:46:09.935Z,28.75
2023-08-21T02:48:40.817Z,28.73
2023-08-21T02:51:11.963Z,28.73
2023-08-21T02:53:42.746Z,28.73
2023-08-21T02:56:13.769Z,28.74
2023-08-21T02:58:44.535Z,28.75
2023-08-21T03:01:15.515Z,28.76
2023-08-21T03:03:46.519Z,28.76
2023-08-21T03:06:17.883Z,28.75
2023-08-21T03:08:49.139Z,28.75
2023-08-21T03:11:20.038Z,28.76
2023-08-21T03:13:50.776Z,28.75
2023-08-21T03:16:21.488Z,28.74
2023-08-21T03:19:02.881Z,28.74
2023-08-21T03:21:33.636Z,28.73
2023-08-21T03:24:05.181Z,28.72
2023-08-21T03:26:36.509Z,28.70
2023-08-21T03:29:07.597Z,28.69
2023-08-21T03:31:38.307Z,28.68
2023-08-21T03:34:09.750Z,28.66
2023-08-21T03:36:40.610Z,28.67
2023-08-21T03:39:11.561Z,28.70
2023-08-21T03:41:42.319Z,28.70
2023-08-21T03:44:15.496Z,28.71
2023-08-21T03:46:46.805Z,28.69
2023-08-21T03:49:20.547Z,28.67
2023-08-21T03:51:51.717Z,28.66
2023-08-21T03:54:22.624Z,28.65
2023-08-21T03:56:53.326Z,28.64
2023-08-21T03:59:25.047Z,28.62
2023-08-21T04:01:55.733Z,28.61
2023-08-21T04:04:26.468Z,28.60
2023-08-21T04:06:57.242Z,28.59
2023-08-21T04:09:27.923Z,28.59
2023-08-21T04:11:58.587Z,28.62
2023-08-21T04:14:29.886Z,28.68
2023-08-21T04:17:00.582Z,28.74
2023-08-21T04:19:34.779Z,28.80
2023-08-21T04:22:05.653Z,28.86
2023-08-21T04:24:36.374Z,28.92
2023-08-21T04:27:07.564Z,28.97
2023-08-21T04:29:38.924Z,29.01
2023-08-21T04:32:10.044Z,29.04
2023-08-21T04:34:40.784Z,29.06
2023-08-21T04:37:11.431Z,29.08
2023-08-21T04:39:42.127Z,29.11
2023-08-21T04:42:13.202Z,29.12
2023-08-21T04:44:43.926Z,29.14
2023-08-21T04:47:25.352Z,29.16
2023-08-21T04:49:57.212Z,29.17
2023-08-21T04:52:28.524Z,29.20
2023-08-21T04:54:59.299Z,29.21
2023-08-21T04:57:30.094Z,29.24
2023-08-21T05:00:01.231Z,29.26
2023-08-21T05:02:32.345Z,29.27
2023-08-21T05:05:03.254Z,29.28
2023-08-21T05:07:34.033Z,29.30
2023-08-21T05:10:06.067Z,29.32
2023-08-21T05:12:37.876Z,29.33
2023-08-21T05:15:10.663Z,29.32
2023-08-21T05:17:41.688Z,29.34
2023-08-21T05:20:15.947Z,29.36
2023-08-21T05:22:47.076Z,29.37
2023-08-21T05:25:18.691Z,29.38
2023-08-21T05:27:49.793Z,29.40
2023-08-21T05:30:21.360Z,29.39
2023-08-21T05:32:52.576Z,29.42
2023-08-21T05:35:23.838Z,29.45
2023-08-21T05:37:54.896Z,29.46
2023-08-21T05:40:25.762Z,29.47
2023-08-21T05:42:56.611Z,29.48
2023-08-21T05:45:27.551Z,29.50
2023-08-21T05:47:59.013Z,29.52
2023-08-21T05:50:30.055Z,29.52
2023-08-21T05:53:02.902Z,29.54
2023-08-21T05:55:34.069Z,29.54
2023-08-21T05:58:05.447Z,29.55
2023-08-21T06:00:36.999Z,29.56
2023-08-21T06:03:08.290Z,29.57
2023-08-21T06:05:39.304Z,29.57
2023-08-21T06:08:11.047Z,29.58
2023-08-21T06:10:41.955Z,29.58
2023-08-21T06:13:12.846Z,29.59
2023-08-21T06:15:46.187Z,29.59
2023-08-21T06:18:15.402Z,29.59
2023-08-21T06:20:47.487Z,29.58
2023-08-21T06:23:18.325Z,29.59
2023-08-21T06:25:51.434Z,29.60
2023-08-21T06:28:22.282Z,29.61
2023-08-21T06:31:02.136Z,29.62
2023-08-21T06:33:33.103Z,29.62
2023-08-21T06:36:04.107Z,29.63
2023-08-21T06:38:36.527Z,29.63
2023-08-21T06:41:12.493Z,29.65
2023-08-21T06:43:45.534Z,29.65
2023-08-21T06:46:16.936Z,29.66
2023-08-21T06:48:48.041Z,29.67
2023-08-21T06:51:18.930Z,29.67
2023-08-21T06:53:49.908Z,29.67
2023-08-21T06:56:20.717Z,29.67
2023-08-21T06:58:51.513Z,29.68
2023-08-21T07:01:22.415Z,29.69
2023-08-21T07:03:53.506Z,29.70
2023-08-21T07:06:24.672Z,29.70
2023-08-21T07:08:55.782Z,29.71
2023-08-21T07:11:26.707Z,29.71
2023-08-21T07:13:58.018Z,29.71
2023-08-21T07:16:28.960Z,29.72
2023-08-21T07:19:00.018Z,29.71
2023-08-21T07:21:33.900Z,29.72
2023-08-21T07:24:06.718Z,29.72
2023-08-21T07:26:37.910Z,29.72
2023-08-21T07:29:09.206Z,29.73
2023-08-21T07:31:40.129Z,29.74
2023-08-21T07:34:11.244Z,29.74
2023-08-21T07:36:42.359Z,29.73
2023-08-21T07:39:13.067Z,29.75
2023-08-21T07:41:43.901Z,29.76
2023-08-21T07:44:14.715Z,29.77
2023-08-21T07:46:45.559Z,29.77
2023-08-21T07:49:16.421Z,29.77
2023-08-21T07:51:47.751Z,29.78
2023-08-21T07:54:18.913Z,29.77
2023-08-21T07:56:49.904Z,29.77
2023-08-21T07:59:21.151Z,29.78
2023-08-21T08:01:52.113Z,29.78
2023-08-21T08:04:23.921Z,29.78
2023-08-21T08:06:54.665Z,29.77
2023-08-21T08:09:26.208Z,29.78
2023-08-21T08:11:57.079Z,29.78
2023-08-21T08:14:27.794Z,29.78
2023-08-21T08:16:58.816Z,29.79
2023-08-21T08:19:30.079Z,29.79
2023-08-21T08:22:01.370Z,29.79
2023-08-21T08:24:32.157Z,29.80
2023-08-21T08:27:03.097Z,29.80
2023-08-21T08:29:34.049Z,29.80
2023-08-21T08:32:05.235Z,29.81
2023-08-21T08:34:35.952Z,29.81
2023-08-21T08:37:06.911Z,29.82
2023-08-21T08:39:37.749Z,29.82
2023-08-21T08:42:10.478Z,29.83
2023-08-21T08:44:42.401Z,29.83
2023-08-21T08:47:14.439Z,29.83
2023-08-21T08:49:45.474Z,29.84
2023-08-21T08:52:18.803Z,29.84
2023-08-21T08:54:48.338Z,29.84
2023-08-21T08:57:19.232Z,29.82
2023-08-21T08:59:50.060Z,29.83
2023-08-21T09:02:21.001Z,29.84
2023-08-21T09:04:51.874Z,29.84
2023-08-21T09:07:22.995Z,29.84
2023-08-21T09:09:54.184Z,29.85
2023-08-21T09:12:25.682Z,29.85
2023-08-21T09:14:56.484Z,29.85
2023-08-21T09:17:28.216Z,29.86
2023-08-21T09:20:05.685Z,29.86
2023-08-21T09:22:36.972Z,29.85
2023-08-21T09:25:11.594Z,29.87
2023-08-21T09:27:43.453Z,29.88
2023-08-21T09:30:17.353Z,29.89
2023-08-21T09:33:01.330Z,29.89
2023-08-21T09:35:34.977Z,29.90
2023-08-21T09:38:08.130Z,29.91
2023-08-21T09:40:43.266Z,29.92
2023-08-21T09:43:14.490Z,29.92
2023-08-21T09:45:47.964Z,29.93
2023-08-21T09:48:19.043Z,29.94
2023-08-21T09:50:50.452Z,29.93
2023-08-21T09:53:22.538Z,29.95
2023-08-21T09:55:57.290Z,29.95
2023-08-21T09:58:28.396Z,29.96
2023-08-21T10:01:01.334Z,29.95
2023-08-21T10:03:34.348Z,29.96
2023-08-21T10:06:07.422Z,29.97
2023-08-21T10:08:41.838Z,29.98
2023-08-21T10:11:13.829Z,30.01
2023-08-21T10:13:46.672Z,30.02
2023-08-21T10:16:19.103Z,30.03
2023-08-21T10:18:50.418Z,30.03
2023-08-21T10:21:23.327Z,30.04
2023-08-21T10:23:58.003Z,30.05
2023-08-21T10:26:33.763Z,30.06
2023-08-21T10:29:08.517Z,30.07
2023-08-21T10:31:40.904Z,30.07
2023-08-21T10:34:14.297Z,30.07
2023-08-21T10:37:08.815Z,30.07
2023-08-21T10:39:41.483Z,30.08
2023-08-21T10:42:16.529Z,30.08
2023-08-21T10:45:00.620Z,30.09
2023-08-21T10:47:37.341Z,30.10
2023-08-21T10:50:11.248Z,30.11
2023-08-21T10:52:46.126Z,30.12
2023-08-21T10:55:19.446Z,30.13
2023-08-21T10:57:51.894Z,30.13
2023-08-21T11:00:23.867Z,30.14
2023-08-21T11:02:54.829Z,30.15
2023-08-21T11:05:25.757Z,30.16
2023-08-21T11:07:56.933Z,30.16
2023-08-21T11:10:30.440Z,30.16
2023-08-21T11:13:02.365Z,30.16
2023-08-21T11:15:33.514Z,30.16
2023-08-21T11:18:05.656Z,30.17
2023-08-21T11:20:38.690Z,30.17
2023-08-21T11:23:10.370Z,30.18
2023-08-21T11:25:43.561Z,30.18
2023-08-21T11:28:18.456Z,30.17
2023-08-21T11:30:49.329Z,30.17
2023-08-21T11:33:20.236Z,30.18
2023-08-21T11:35:53.366Z,30.18
2023-08-21T11:38:26.050Z,30.18
2023-08-21T11:40:59.441Z,30.19
2023-08-21T11:43:41.093Z,30.19
2023-08-21T11:46:13.320Z,30.20
2023-08-21T11:48:46.062Z,30.21
2023-08-21T11:51:17.089Z,30.22
2023-08-21T11:53:51.258Z,30.24
2023-08-21T11:56:24.715Z,30.25
2023-08-21T11:58:58.003Z,30.26
2023-08-21T12:01:29.321Z,30.26
2023-08-21T12:04:00.176Z,30.26
2023-08-21T12:06:33.691Z,30.26
2023-08-21T12:09:05.967Z,30.26
2023-08-21T12:11:43.340Z,30.27
2023-08-21T12:14:14.388Z,30.27
2023-08-21T12:16:46.015Z,30.26
2023-08-21T12:19:17.511Z,30.28
2023-08-21T12:21:48.478Z,30.28
2023-08-21T12:24:19.302Z,30.29
2023-08-21T12:26:51.290Z,30.30
2023-08-21T12:29:23.230Z,30.31
2023-08-21T12:31:54.994Z,30.32
2023-08-21T12:34:25.786Z,30.34
2023-08-21T12:36:57.736Z,30.35
2023-08-21T12:39:28.544Z,30.35
2023-08-21T12:42:01.676Z,30.35
2023-08-21T12:47:05.115Z,30.37
2023-08-21T12:49:36.730Z,30.37
2023-08-21T12:52:10.443Z,30.37
2023-08-21T12:54:42.781Z,30.38
2023-08-21T12:57:13.775Z,30.39
2023-08-21T12:59:44.593Z,30.39
2023-08-21T13:02:15.351Z,30.39
2023-08-21T13:04:46.167Z,30.40
2023-08-21T13:07:17.554Z,30.39
2023-08-21T13:09:48.875Z,30.40
2023-08-21T13:12:19.791Z,30.40
2023-08-21T13:14:50.918Z,30.40
2023-08-21T13:17:21.964Z,30.40
2023-08-21T13:19:52.885Z,30.40
2023-08-21T13:22:24.077Z,30.39
2023-08-21T13:24:55.065Z,30.39
2023-08-21T13:27:26.029Z,30.40
2023-08-21T13:29:57.125Z,30.40
2023-08-21T13:32:28.162Z,30.41
2023-08-21T13:35:01.340Z,30.42
2023-08-21T13:37:32.254Z,30.43
2023-08-21T13:40:12.935Z,30.43
2023-08-21T13:42:45.572Z,30.43
2023-08-21T13:45:22.357Z,30.43
2023-08-21T13:48:06.954Z,30.45
2023-08-21T13:50:38.093Z,30.44
2023-08-21T13:53:09.404Z,30.46
2023-08-21T13:55:40.591Z,30.46
2023-08-21T13:58:13.457Z,30.46
2023-08-21T14:00:46.040Z,30.48
2023-08-21T14:03:21.674Z,30.48
2023-08-21T14:05:52.818Z,30.48
2023-08-21T14:08:23.908Z,30.49
2023-08-21T14:10:58.703Z,30.50
2023-08-21T14:13:35.692Z,30.51
2023-08-21T14:16:11.228Z,30.51
2023-08-21T14:18:42.726Z,30.51
2023-08-21T14:21:13.961Z,30.51
2023-08-21T14:23:44.910Z,30.51
2023-08-21T14:26:19.047Z,30.53
2023-08-21T14:28:51.832Z,30.54
2023-08-21T14:31:22.788Z,30.54
2023-08-21T14:33:53.828Z,30.54
2023-08-21T14:36:24.961Z,30.53
2023-08-21T14:39:00.701Z,30.54
2023-08-21T14:41:33.259Z,30.53
2023-08-21T14:44:04.183Z,30.54
2023-08-21T14:49:11.413Z,30.55
2023-08-21T14:51:42.830Z,30.56
2023-08-21T14:54:13.966Z,30.57
2023-08-21T14:56:47.081Z,30.56
2023-08-21T14:59:18.191Z,30.56
2023-08-21T15:01:49.546Z,30.56
2023-08-21T15:04:20.360Z,30.56
2023-08-21T15:06:57.868Z,30.56
2023-08-21T15:09:28.850Z,30.56
2023-08-21T15:11:59.616Z,30.57
2023-08-21T15:14:30.807Z,30.57
2023-08-21T15:17:17.638Z,30.58
2023-08-21T15:19:51.353Z,30.58
2023-08-21T15:22:22.443Z,30.58
2023-08-21T15:24:53.491Z,30.59
2023-08-21T15:27:24.480Z,30.61
2023-08-21T15:29:55.376Z,30.63
2023-08-21T15:32:26.401Z,30.65
2023-08-21T15:34:57.466Z,30.66
2023-08-21T15:37:28.492Z,30.70
2023-08-21T15:39:59.525Z,30.72
2023-08-21T15:42:30.609Z,30.74
2023-08-21T15:45:01.622Z,30.77
2023-08-21T15:50:07.033Z,30.79
2023-08-21T15:52:38.870Z,30.80
2023-08-21T15:55:11.073Z,30.82
2023-08-21T15:57:42.125Z,30.83
2023-08-21T16:00:14.801Z,30.84
2023-08-21T16:02:45.619Z,30.86
2023-08-21T16:05:16.589Z,30.86
2023-08-21T16:07:47.308Z,30.87
2023-08-21T16:10:18.376Z,30.87
2023-08-21T16:12:49.182Z,30.87
2023-08-21T16:15:20.038Z,30.88
2023-08-21T16:17:51.885Z,30.88
2023-08-21T16:20:22.828Z,30.90
2023-08-21T16:22:53.609Z,30.91
2023-08-21T16:25:25.487Z,30.91
2023-08-21T16:27:56.271Z,30.91
2023-08-21T16:30:26.993Z,30.93
2023-08-21T16:32:58.076Z,30.93
2023-08-21T16:35:29.263Z,30.94
2023-08-21T16:38:00.380Z,30.94
2023-08-21T16:40:31.296Z,30.94
2023-08-21T16:43:02.319Z,30.95
2023-08-21T16:45:35.731Z,30.96
2023-08-21T16:48:07.517Z,30.98
2023-08-21T16:50:38.322Z,31.00
2023-08-21T16:53:21.744Z,31.03
2023-08-21T16:55:54.455Z,31.06
2023-08-21T16:58:25.535Z,31.09
2023-08-21T17:00:56.885Z,31.11
2023-08-21T17:03:28.261Z,31.14
2023-08-21T17:05:59.227Z,31.15
2023-08-21T17:08:30.303Z,31.17
2023-08-21T17:11:01.114Z,31.19
2023-08-21T17:13:32.237Z,31.21
2023-08-21T17:16:03.540Z,31.20
2023-08-21T17:18:34.655Z,31.22
2023-08-21T17:21:05.732Z,31.24
2023-08-21T17:23:36.581Z,31.25
2023-08-21T17:26:07.526Z,31.26
2023-08-21T17:28:38.298Z,31.27
2023-08-21T17:31:09.116Z,31.28
2023-08-21T17:33:39.957Z,31.29
2023-08-21T17:36:10.839Z,31.29
2023-08-21T17:38:42.940Z,31.29
2023-08-21T17:41:13.751Z,31.30
2023-08-21T17:43:44.666Z,31.30
2023-08-21T17:46:17.887Z,31.31
2023-08-21T17:48:47.910Z,31.31
2023-08-21T17:51:18.758Z,31.30
2023-08-21T17:53:50.669Z,31.30
2023-08-21T17:56:21.876Z,31.31
2023-08-21T17:58:52.705Z,31.32
2023-08-21T18:01:24.600Z,31.33
2023-08-21T18:03:55.561Z,31.33
2023-08-21T18:06:27.075Z,31.33
2023-08-21T18:08:57.950Z,31.34
2023-08-21T18:11:28.924Z,31.36
2023-08-21T18:13:59.835Z,31.37
2023-08-21T18:16:32.956Z,31.38
2023-08-21T18:19:04.140Z,31.38
2023-08-21T18:21:35.117Z,31.37
2023-08-21T18:24:06.576Z,31.38
2023-08-21T18:26:38.445Z,31.38
2023-08-21T18:29:09.292Z,31.38
2023-08-21T18:31:40.196Z,31.39
2023-08-21T18:34:11.332Z,31.40
2023-08-21T18:36:42.238Z,31.41
2023-08-21T18:39:13.396Z,31.43
2023-08-21T18:41:45.288Z,31.43
2023-08-21T18:44:16.222Z,31.44
2023-08-21T18:46:47.554Z,31.45
2023-08-21T18:49:18.603Z,31.46
2023-08-21T18:51:49.636Z,31.48
2023-08-21T18:54:24.607Z,31.49
2023-08-21T18:56:56.410Z,31.50
2023-08-21T18:59:27.397Z,31.50
2023-08-21T19:01:59.306Z,31.50
2023-08-21T19:04:33.435Z,31.50
2023-08-21T19:07:06.965Z,31.51
2023-08-21T19:09:38.478Z,31.51
2023-08-21T19:12:10.485Z,31.50
2023-08-21T19:14:41.726Z,31.50
2023-08-21T19:17:12.701Z,31.49
2023-08-21T19:19:43.768Z,31.46
2023-08-21T19:22:14.740Z,31.47
2023-08-21T19:24:45.813Z,31.46
2023-08-21T19:27:17.123Z,31.45
2023-08-21T19:29:49.742Z,31.46
2023-08-21T19:32:20.919Z,31.45
2023-08-21T19:34:52.956Z,31.44
2023-08-21T19:37:23.894Z,31.43
2023-08-21T19:39:54.787Z,31.44
2023-08-21T19:42:26.303Z,31.44
2023-08-21T19:44:57.335Z,31.44
2023-08-21T19:47:28.141Z,31.44
2023-08-21T19:49:59.376Z,31.45
2023-08-21T19:52:30.424Z,31.45
2023-08-21T19:55:01.466Z,31.42
2023-08-21T19:57:32.813Z,31.43
2023-08-21T20:00:06.361Z,31.44
2023-08-21T20:02:38.082Z,31.43
2023-08-21T20:05:10.681Z,31.41
2023-08-21T20:07:42.045Z,31.38
2023-08-21T20:10:14.224Z,31.35
2023-08-21T20:12:46.666Z,31.35
2023-08-21T20:15:18.027Z,31.35
2023-08-21T20:17:49.207Z,31.35
2023-08-21T20:20:20.118Z,31.35
2023-08-21T20:22:51.074Z,31.33
2023-08-21T20:25:22.441Z,31.32
2023-08-21T20:27:53.409Z,31.32
2023-08-21T20:30:24.489Z,31.31
2023-08-21T20:32:55.377Z,31.28
2023-08-21T20:35:26.200Z,31.26
2023-08-21T20:37:57.222Z,31.23
2023-08-21T20:40:28.523Z,31.21
2023-08-21T20:42:59.418Z,31.20
2023-08-21T20:45:31.588Z,31.17
2023-08-21T20:48:02.767Z,31.15
2023-08-21T20:50:35.991Z,31.11
2023-08-21T20:53:07.374Z,31.10
2023-08-21T20:55:38.754Z,31.09
2023-08-21T20:58:09.530Z,31.07
2023-08-21T21:00:40.527Z,31.05
2023-08-21T21:03:11.471Z,31.02
2023-08-21T21:05:42.413Z,31.00
2023-08-21T21:08:13.350Z,30.98
2023-08-21T21:10:44.281Z,30.96
2023-08-21T21:13:15.080Z,30.93
2023-08-21T21:15:45.782Z,30.93
2023-08-21T21:18:16.637Z,30.91
2023-08-21T21:20:47.580Z,30.91
2023-08-21T21:23:18.402Z,30.89
2023-08-21T21:25:49.132Z,30.87
2023-08-21T21:28:19.824Z,30.86
2023-08-21T21:30:56.787Z,30.84
2023-08-21T21:33:29.064Z,30.82
2023-08-21T21:36:03.776Z,30.80
2023-08-21T21:38:35.650Z,30.80
2023-08-21T21:41:06.415Z,30.79
2023-08-21T21:43:37.162Z,30.80
2023-08-21T21:46:11.078Z,30.80
2023-08-21T21:48:42.152Z,30.79
2023-08-21T21:51:13.324Z,30.78
2023-08-21T21:53:44.130Z,30.76
2023-08-21T21:56:14.912Z,30.74
2023-08-21T21:58:46.128Z,30.73
2023-08-21T22:01:18.435Z,30.72
2023-08-21T22:03:50.430Z,30.70
2023-08-21T22:06:21.457Z,30.68
2023-08-21T22:08:52.474Z,30.65
2023-08-21T22:11:23.321Z,30.63
2023-08-21T22:13:54.241Z,30.62
2023-08-21T22:16:25.092Z,30.60
2023-08-21T22:18:55.953Z,30.59
2023-08-21T22:21:26.819Z,30.58
2023-08-21T22:23:57.797Z,30.57
2023-08-21T22:26:28.506Z,30.56
2023-08-21T22:28:59.283Z,30.55
2023-08-21T22:31:41.138Z,30.52
2023-08-21T22:34:12.790Z,30.48
2023-08-21T22:36:44.897Z,30.45
2023-08-21T22:39:15.622Z,30.44
2023-08-21T22:41:46.806Z,30.43
2023-08-21T22:44:17.630Z,30.42
2023-08-21T22:46:50.000Z,30.41
2023-08-21T22:49:20.765Z,30.38
2023-08-21T22:51:53.232Z,30.36
2023-08-21T22:54:24.243Z,30.35
2023-08-21T22:56:54.958Z,30.32
2023-08-21T22:59:25.756Z,30.30
2023-08-21T23:01:56.792Z,30.28
2023-08-21T23:04:27.536Z,30.27
2023-08-21T23:06:58.664Z,30.25
2023-08-21T23:09:30.331Z,30.25
2023-08-21T23:12:01.116Z,30.23
2023-08-21T23:14:33.773Z,30.23
2023-08-21T23:17:06.147Z,30.23
2023-08-21T23:19:37.075Z,30.23
2023-08-21T23:22:08.009Z,30.22
2023-08-21T23:24:38.707Z,30.21
2023-08-21T23:27:10.005Z,30.20
2023-08-21T23:29:40.857Z,30.20
2023-08-21T23:32:11.636Z,30.19
2023-08-21T23:34:42.407Z,30.18
2023-08-21T23:37:13.100Z,30.17
2023-08-21T23:39:43.799Z,30.14
2023-08-21T23:42:14.555Z,30.12
2023-08-21T23:44:45.590Z,30.11
2023-08-21T23:47:16.712Z,30.10
2023-08-21T23:49:47.656Z,30.08
2023-08-21T23:52:18.571Z,30.07
2023-08-21T23:54:49.339Z,30.04
2023-08-21T23:57:20.335Z,30.03
2023-08-21T23:59:51.056Z,30.01
